sensor_id;sensor_type;location;lat;lon;timestamp;P1;durP1;ratioP1;P2;durP2;ratioP2
10458;SDS011;5277;48.722;8.736;2023-04-24T00:01:14;5.15;;;1.20;;
10458;SDS011;5277;48.722;8.736;2023-04-24T00:03:42;1.27;;;0.95;;
10458;SDS011;5277;48.722;8.736;2023-04-24T00:06:07;2.42;;;1.20;;
10458;SDS011;5277;48.722;8.736;2023-04-24T00:08:33;5.82;;;1.15;;
10458;SDS011;5277;48.722;8.736;2023-04-24T00:11:00;5.28;;;1.10;;
10458;SDS011;5277;48.722;8.736;2023-04-24T00:13:25;5.57;;;1.20;;
10458;SDS011;5277;48.722;8.736;2023-04-24T00:15:53;3.10;;;1.23;;
10458;SDS011;5277;48.722;8.736;2023-04-24T00:18:19;2.33;;;1.00;;
10458;SDS011;5277;48.722;8.736;2023-04-24T00:20:44;3.33;;;1.10;;
10458;SDS011;5277;48.722;8.736;2023-04-24T00:23:11;2.05;;;0.90;;
10458;SDS011;5277;48.722;8.736;2023-04-24T00:25:37;5.32;;;1.65;;
10458;SDS011;5277;48.722;8.736;2023-04-24T00:28:03;4.38;;;1.30;;
10458;SDS011;5277;48.722;8.736;2023-04-24T00:30:29;1.40;;;1.08;;
10458;SDS011;5277;48.722;8.736;2023-04-24T00:32:54;2.15;;;1.20;;
10458;SDS011;5277;48.722;8.736;2023-04-24T00:35:20;3.97;;;1.20;;
10458;SDS011;5277;48.722;8.736;2023-04-24T00:37:46;5.57;;;1.00;;
10458;SDS011;5277;48.722;8.736;2023-04-24T00:40:11;2.95;;;1.20;;
10458;SDS011;5277;48.722;8.736;2023-04-24T00:42:38;2.63;;;1.08;;
10458;SDS011;5277;48.722;8.736;2023-04-24T00:45:05;1.80;;;0.98;;
10458;SDS011;5277;48.722;8.736;2023-04-24T00:47:31;1.83;;;0.90;;
10458;SDS011;5277;48.722;8.736;2023-04-24T00:49:58;3.47;;;1.27;;
10458;SDS011;5277;48.722;8.736;2023-04-24T00:52:25;8.18;;;1.27;;
10458;SDS011;5277;48.722;8.736;2023-04-24T00:54:51;1.45;;;0.93;;
10458;SDS011;5277;48.722;8.736;2023-04-24T00:57:16;2.22;;;1.05;;
10458;SDS011;5277;48.722;8.736;2023-04-24T00:59:42;2.95;;;1.00;;
10458;SDS011;5277;48.722;8.736;2023-04-24T01:02:09;3.10;;;1.17;;
10458;SDS011;5277;48.722;8.736;2023-04-24T01:04:36;2.47;;;1.00;;
10458;SDS011;5277;48.722;8.736;2023-04-24T01:07:02;5.00;;;1.40;;
10458;SDS011;5277;48.722;8.736;2023-04-24T01:09:28;2.42;;;0.98;;
10458;SDS011;5277;48.722;8.736;2023-04-24T01:11:54;1.50;;;0.82;;
10458;SDS011;5277;48.722;8.736;2023-04-24T01:14:20;3.67;;;0.90;;
10458;SDS011;5277;48.722;8.736;2023-04-24T01:16:45;1.15;;;0.70;;
10458;SDS011;5277;48.722;8.736;2023-04-24T01:19:11;1.25;;;0.95;;
10458;SDS011;5277;48.722;8.736;2023-04-24T01:21:39;4.22;;;1.00;;
10458;SDS011;5277;48.722;8.736;2023-04-24T01:24:07;2.15;;;0.90;;
10458;SDS011;5277;48.722;8.736;2023-04-24T01:26:33;2.70;;;1.00;;
10458;SDS011;5277;48.722;8.736;2023-04-24T01:28:59;1.50;;;0.80;;
10458;SDS011;5277;48.722;8.736;2023-04-24T01:31:25;1.45;;;0.80;;
10458;SDS011;5277;48.722;8.736;2023-04-24T01:33:51;2.70;;;1.20;;
10458;SDS011;5277;48.722;8.736;2023-04-24T01:36:17;3.47;;;1.20;;
10458;SDS011;5277;48.722;8.736;2023-04-24T01:38:43;3.05;;;1.42;;
10458;SDS011;5277;48.722;8.736;2023-04-24T01:41:09;2.53;;;1.00;;
10458;SDS011;5277;48.722;8.736;2023-04-24T01:43:35;5.70;;;1.00;;
10458;SDS011;5277;48.722;8.736;2023-04-24T01:46:01;3.95;;;1.30;;
10458;SDS011;5277;48.722;8.736;2023-04-24T01:48:27;5.40;;;1.10;;
10458;SDS011;5277;48.722;8.736;2023-04-24T01:50:52;2.47;;;1.10;;
10458;SDS011;5277;48.722;8.736;2023-04-24T01:53:19;5.72;;;1.20;;
10458;SDS011;5277;48.722;8.736;2023-04-24T01:55:45;2.95;;;1.20;;
10458;SDS011;5277;48.722;8.736;2023-04-24T01:58:10;4.25;;;1.25;;
10458;SDS011;5277;48.722;8.736;2023-04-24T02:00:36;3.72;;;1.30;;
10458;SDS011;5277;48.722;8.736;2023-04-24T02:03:02;4.68;;;1.05;;
10458;SDS011;5277;48.722;8.736;2023-04-24T02:05:28;1.80;;;1.10;;
10458;SDS011;5277;48.722;8.736;2023-04-24T02:07:53;4.90;;;1.42;;
10458;SDS011;5277;48.722;8.736;2023-04-24T02:10:19;5.78;;;0.95;;
10458;SDS011;5277;48.722;8.736;2023-04-24T02:12:44;5.97;;;1.88;;
10458;SDS011;5277;48.722;8.736;2023-04-24T02:15:10;7.05;;;1.23;;
10458;SDS011;5277;48.722;8.736;2023-04-24T02:17:36;4.50;;;1.20;;
10458;SDS011;5277;48.722;8.736;2023-04-24T02:20:02;5.28;;;1.38;;
10458;SDS011;5277;48.722;8.736;2023-04-24T02:22:29;2.70;;;1.17;;
10458;SDS011;5277;48.722;8.736;2023-04-24T02:24:55;2.03;;;1.08;;
10458;SDS011;5277;48.722;8.736;2023-04-24T02:27:21;5.13;;;1.50;;
10458;SDS011;5277;48.722;8.736;2023-04-24T02:29:46;5.82;;;1.20;;
10458;SDS011;5277;48.722;8.736;2023-04-24T02:32:12;3.25;;;1.20;;
10458;SDS011;5277;48.722;8.736;2023-04-24T02:34:40;3.97;;;0.95;;
10458;SDS011;5277;48.722;8.736;2023-04-24T02:37:05;5.93;;;1.40;;
10458;SDS011;5277;48.722;8.736;2023-04-24T02:39:31;1.75;;;1.17;;
10458;SDS011;5277;48.722;8.736;2023-04-24T02:41:57;4.80;;;1.60;;
10458;SDS011;5277;48.722;8.736;2023-04-24T02:44:23;7.18;;;1.15;;
10458;SDS011;5277;48.722;8.736;2023-04-24T02:46:48;4.20;;;1.00;;
10458;SDS011;5277;48.722;8.736;2023-04-24T02:49:14;2.95;;;0.95;;
10458;SDS011;5277;48.722;8.736;2023-04-24T02:51:40;1.63;;;1.00;;
10458;SDS011;5277;48.722;8.736;2023-04-24T02:54:06;2.83;;;1.13;;
10458;SDS011;5277;48.722;8.736;2023-04-24T02:56:33;4.07;;;1.08;;
10458;SDS011;5277;48.722;8.736;2023-04-24T02:58:59;1.55;;;0.90;;
10458;SDS011;5277;48.722;8.736;2023-04-24T03:01:25;4.57;;;1.10;;
10458;SDS011;5277;48.722;8.736;2023-04-24T03:03:50;1.42;;;1.02;;
10458;SDS011;5277;48.722;8.736;2023-04-24T03:06:16;5.03;;;1.35;;
10458;SDS011;5277;48.722;8.736;2023-04-24T03:08:41;1.52;;;1.05;;
10458;SDS011;5277;48.722;8.736;2023-04-24T03:11:07;2.28;;;1.20;;
10458;SDS011;5277;48.722;8.736;2023-04-24T03:13:33;4.90;;;1.10;;
10458;SDS011;5277;48.722;8.736;2023-04-24T03:15:58;3.70;;;1.20;;
10458;SDS011;5277;48.722;8.736;2023-04-24T03:18:24;1.30;;;1.05;;
10458;SDS011;5277;48.722;8.736;2023-04-24T03:20:50;3.72;;;1.33;;
10458;SDS011;5277;48.722;8.736;2023-04-24T03:23:16;3.05;;;1.42;;
10458;SDS011;5277;48.722;8.736;2023-04-24T03:25:41;4.53;;;1.25;;
10458;SDS011;5277;48.722;8.736;2023-04-24T03:28:07;11.07;;;1.35;;
10458;SDS011;5277;48.722;8.736;2023-04-24T03:30:33;4.03;;;1.30;;
10458;SDS011;5277;48.722;8.736;2023-04-24T03:32:59;5.15;;;1.35;;
10458;SDS011;5277;48.722;8.736;2023-04-24T03:35:25;3.13;;;1.30;;
10458;SDS011;5277;48.722;8.736;2023-04-24T03:37:51;1.75;;;1.30;;
10458;SDS011;5277;48.722;8.736;2023-04-24T03:40:16;4.43;;;1.20;;
10458;SDS011;5277;48.722;8.736;2023-04-24T03:42:42;2.22;;;1.20;;
10458;SDS011;5277;48.722;8.736;2023-04-24T03:45:08;6.03;;;1.83;;
10458;SDS011;5277;48.722;8.736;2023-04-24T03:47:34;8.23;;;1.70;;
10458;SDS011;5277;48.722;8.736;2023-04-24T03:50:00;5.63;;;1.40;;
10458;SDS011;5277;48.722;8.736;2023-04-24T03:52:25;4.43;;;1.48;;
10458;SDS011;5277;48.722;8.736;2023-04-24T03:54:51;6.35;;;1.88;;
10458;SDS011;5277;48.722;8.736;2023-04-24T03:57:17;5.72;;;1.80;;
10458;SDS011;5277;48.722;8.736;2023-04-24T03:59:42;2.65;;;1.40;;
10458;SDS011;5277;48.722;8.736;2023-04-24T04:02:08;1.48;;;1.20;;
10458;SDS011;5277;48.722;8.736;2023-04-24T04:04:33;4.32;;;1.60;;
10458;SDS011;5277;48.722;8.736;2023-04-24T04:06:59;2.15;;;1.42;;
10458;SDS011;5277;48.722;8.736;2023-04-24T04:09:27;4.85;;;1.40;;
10458;SDS011;5277;48.722;8.736;2023-04-24T04:11:53;3.10;;;1.10;;
10458;SDS011;5277;48.722;8.736;2023-04-24T04:14:20;1.33;;;1.20;;
10458;SDS011;5277;48.722;8.736;2023-04-24T04:16:57;2.58;;;1.20;;
10458;SDS011;5277;48.722;8.736;2023-04-24T04:19:23;5.38;;;1.13;;
10458;SDS011;5277;48.722;8.736;2023-04-24T04:21:49;2.13;;;1.20;;
10458;SDS011;5277;48.722;8.736;2023-04-24T04:24:18;3.72;;;1.20;;
10458;SDS011;5277;48.722;8.736;2023-04-24T04:26:45;2.90;;;1.30;;
10458;SDS011;5277;48.722;8.736;2023-04-24T04:29:12;1.73;;;1.05;;
10458;SDS011;5277;48.722;8.736;2023-04-24T04:31:38;4.00;;;1.55;;
10458;SDS011;5277;48.722;8.736;2023-04-24T04:34:04;1.50;;;1.10;;
10458;SDS011;5277;48.722;8.736;2023-04-24T04:36:29;2.28;;;1.15;;
10458;SDS011;5277;48.722;8.736;2023-04-24T04:38:55;3.90;;;1.40;;
10458;SDS011;5277;48.722;8.736;2023-04-24T04:41:21;1.33;;;0.98;;
10458;SDS011;5277;48.722;8.736;2023-04-24T04:43:47;3.15;;;0.98;;
10458;SDS011;5277;48.722;8.736;2023-04-24T04:46:13;3.83;;;1.20;;
10458;SDS011;5277;48.722;8.736;2023-04-24T04:48:38;3.13;;;1.05;;
10458;SDS011;5277;48.722;8.736;2023-04-24T04:51:05;3.33;;;1.15;;
10458;SDS011;5277;48.722;8.736;2023-04-24T04:53:31;1.48;;;1.13;;
10458;SDS011;5277;48.722;8.736;2023-04-24T04:55:56;4.97;;;1.60;;
10458;SDS011;5277;48.722;8.736;2023-04-24T04:58:22;2.65;;;1.23;;
10458;SDS011;5277;48.722;8.736;2023-04-24T05:00:48;3.50;;;1.50;;
10458;SDS011;5277;48.722;8.736;2023-04-24T05:03:14;4.43;;;1.52;;
10458;SDS011;5277;48.722;8.736;2023-04-24T05:05:39;6.97;;;1.42;;
10458;SDS011;5277;48.722;8.736;2023-04-24T05:08:06;2.65;;;1.48;;
10458;SDS011;5277;48.722;8.736;2023-04-24T05:10:32;3.28;;;1.63;;
10458;SDS011;5277;48.722;8.736;2023-04-24T05:12:58;6.88;;;1.98;;
10458;SDS011;5277;48.722;8.736;2023-04-24T05:15:23;1.75;;;1.63;;
10458;SDS011;5277;48.722;8.736;2023-04-24T05:17:49;3.17;;;1.90;;
10458;SDS011;5277;48.722;8.736;2023-04-24T05:20:15;2.55;;;1.98;;
10458;SDS011;5277;48.722;8.736;2023-04-24T05:22:41;2.95;;;1.95;;
10458;SDS011;5277;48.722;8.736;2023-04-24T05:25:07;4.72;;;1.95;;
10458;SDS011;5277;48.722;8.736;2023-04-24T05:27:33;2.88;;;1.95;;
10458;SDS011;5277;48.722;8.736;2023-04-24T05:29:59;2.38;;;1.88;;
10458;SDS011;5277;48.722;8.736;2023-04-24T05:32:24;2.10;;;1.85;;
10458;SDS011;5277;48.722;8.736;2023-04-24T05:34:51;4.68;;;1.90;;
10458;SDS011;5277;48.722;8.736;2023-04-24T05:37:17;3.60;;;1.98;;
10458;SDS011;5277;48.722;8.736;2023-04-24T05:39:43;3.35;;;2.08;;
10458;SDS011;5277;48.722;8.736;2023-04-24T05:42:08;4.32;;;2.40;;
10458;SDS011;5277;48.722;8.736;2023-04-24T05:44:34;3.28;;;2.20;;
10458;SDS011;5277;48.722;8.736;2023-04-24T05:47:00;8.20;;;2.40;;
10458;SDS011;5277;48.722;8.736;2023-04-24T05:49:26;7.57;;;2.58;;
10458;SDS011;5277;48.722;8.736;2023-04-24T05:51:52;5.93;;;2.38;;
10458;SDS011;5277;48.722;8.736;2023-04-24T05:54:17;3.72;;;2.40;;
10458;SDS011;5277;48.722;8.736;2023-04-24T05:56:43;4.07;;;2.70;;
10458;SDS011;5277;48.722;8.736;2023-04-24T05:59:09;3.47;;;2.60;;
10458;SDS011;5277;48.722;8.736;2023-04-24T06:01:34;8.30;;;3.05;;
10458;SDS011;5277;48.722;8.736;2023-04-24T06:04:01;7.13;;;2.40;;
10458;SDS011;5277;48.722;8.736;2023-04-24T06:06:28;5.93;;;2.65;;
10458;SDS011;5277;48.722;8.736;2023-04-24T06:08:54;5.72;;;2.65;;
10458;SDS011;5277;48.722;8.736;2023-04-24T06:11:19;3.20;;;2.10;;
10458;SDS011;5277;48.722;8.736;2023-04-24T06:13:45;4.45;;;2.08;;
10458;SDS011;5277;48.722;8.736;2023-04-24T06:16:10;2.92;;;2.20;;
10458;SDS011;5277;48.722;8.736;2023-04-24T06:18:36;2.58;;;1.95;;
10458;SDS011;5277;48.722;8.736;2023-04-24T06:21:02;4.85;;;1.90;;
10458;SDS011;5277;48.722;8.736;2023-04-24T06:23:27;1.95;;;1.65;;
10458;SDS011;5277;48.722;8.736;2023-04-24T06:25:54;2.85;;;1.58;;
10458;SDS011;5277;48.722;8.736;2023-04-24T06:28:19;3.97;;;2.03;;
10458;SDS011;5277;48.722;8.736;2023-04-24T06:30:45;3.63;;;1.63;;
10458;SDS011;5277;48.722;8.736;2023-04-24T06:33:11;2.20;;;1.77;;
10458;SDS011;5277;48.722;8.736;2023-04-24T06:35:36;2.55;;;1.83;;
10458;SDS011;5277;48.722;8.736;2023-04-24T06:38:03;8.40;;;1.95;;
10458;SDS011;5277;48.722;8.736;2023-04-24T06:40:28;1.88;;;1.50;;
10458;SDS011;5277;48.722;8.736;2023-04-24T06:42:55;3.20;;;1.75;;
10458;SDS011;5277;48.722;8.736;2023-04-24T06:45:20;2.40;;;2.10;;
10458;SDS011;5277;48.722;8.736;2023-04-24T06:47:46;2.10;;;1.60;;
10458;SDS011;5277;48.722;8.736;2023-04-24T06:50:12;1.95;;;1.40;;
10458;SDS011;5277;48.722;8.736;2023-04-24T06:52:37;3.47;;;1.50;;
10458;SDS011;5277;48.722;8.736;2023-04-24T06:55:03;2.22;;;1.50;;
10458;SDS011;5277;48.722;8.736;2023-04-24T06:57:29;2.28;;;1.45;;
10458;SDS011;5277;48.722;8.736;2023-04-24T06:59:56;1.92;;;1.58;;
10458;SDS011;5277;48.722;8.736;2023-04-24T07:02:21;2.58;;;1.40;;
10458;SDS011;5277;48.722;8.736;2023-04-24T07:04:47;2.97;;;1.30;;
10458;SDS011;5277;48.722;8.736;2023-04-24T07:07:13;2.47;;;1.30;;
10458;SDS011;5277;48.722;8.736;2023-04-24T07:09:41;2.67;;;1.30;;
10458;SDS011;5277;48.722;8.736;2023-04-24T07:12:07;1.83;;;1.30;;
10458;SDS011;5277;48.722;8.736;2023-04-24T07:14:35;1.63;;;1.30;;
10458;SDS011;5277;48.722;8.736;2023-04-24T07:17:02;3.60;;;1.55;;
10458;SDS011;5277;48.722;8.736;2023-04-24T07:19:31;1.65;;;1.25;;
10458;SDS011;5277;48.722;8.736;2023-04-24T07:21:58;1.65;;;1.00;;
10458;SDS011;5277;48.722;8.736;2023-04-24T07:24:24;1.80;;;1.40;;
10458;SDS011;5277;48.722;8.736;2023-04-24T07:39:45;1.55;;;1.30;;
10458;SDS011;5277;48.722;8.736;2023-04-24T07:42:11;3.00;;;1.17;;
10458;SDS011;5277;48.722;8.736;2023-04-24T07:44:36;3.72;;;1.60;;
10458;SDS011;5277;48.722;8.736;2023-04-24T07:47:02;2.50;;;1.40;;
10458;SDS011;5277;48.722;8.736;2023-04-24T07:49:28;1.77;;;1.25;;
10458;SDS011;5277;48.722;8.736;2023-04-24T07:51:53;4.60;;;1.27;;
10458;SDS011;5277;48.722;8.736;2023-04-24T07:54:19;2.22;;;1.42;;
10458;SDS011;5277;48.722;8.736;2023-04-24T07:56:45;1.33;;;1.00;;
10458;SDS011;5277;48.722;8.736;2023-04-24T07:59:10;2.83;;;1.33;;
10458;SDS011;5277;48.722;8.736;2023-04-24T08:01:36;2.75;;;1.15;;
10458;SDS011;5277;48.722;8.736;2023-04-24T08:04:02;1.60;;;1.05;;
10458;SDS011;5277;48.722;8.736;2023-04-24T08:06:28;4.35;;;1.27;;
10458;SDS011;5277;48.722;8.736;2023-04-24T08:08:55;3.15;;;1.20;;
10458;SDS011;5277;48.722;8.736;2023-04-24T08:11:21;2.72;;;1.35;;
10458;SDS011;5277;48.722;8.736;2023-04-24T08:13:47;3.67;;;1.20;;
10458;SDS011;5277;48.722;8.736;2023-04-24T08:16:12;2.83;;;1.30;;
10458;SDS011;5277;48.722;8.736;2023-04-24T08:18:38;4.40;;;1.20;;
10458;SDS011;5277;48.722;8.736;2023-04-24T08:21:04;2.80;;;1.30;;
10458;SDS011;5277;48.722;8.736;2023-04-24T08:23:29;8.95;;;1.38;;
10458;SDS011;5277;48.722;8.736;2023-04-24T08:25:55;4.05;;;1.17;;
10458;SDS011;5277;48.722;8.736;2023-04-24T08:28:22;1.90;;;1.40;;
10458;SDS011;5277;48.722;8.736;2023-04-24T08:30:47;3.15;;;1.20;;
10458;SDS011;5277;48.722;8.736;2023-04-24T08:33:14;2.75;;;1.23;;
10458;SDS011;5277;48.722;8.736;2023-04-24T08:35:40;2.13;;;1.30;;
10458;SDS011;5277;48.722;8.736;2023-04-24T08:38:05;2.88;;;1.27;;
10458;SDS011;5277;48.722;8.736;2023-04-24T08:40:32;3.15;;;1.30;;
10458;SDS011;5277;48.722;8.736;2023-04-24T08:42:59;1.90;;;1.35;;
10458;SDS011;5277;48.722;8.736;2023-04-24T08:45:25;5.25;;;1.20;;
10458;SDS011;5277;48.722;8.736;2023-04-24T08:47:52;2.17;;;1.30;;
10458;SDS011;5277;48.722;8.736;2023-04-24T08:50:18;3.85;;;1.38;;
10458;SDS011;5277;48.722;8.736;2023-04-24T08:52:44;3.47;;;1.20;;
10458;SDS011;5277;48.722;8.736;2023-04-24T08:55:10;2.28;;;1.33;;
10458;SDS011;5277;48.722;8.736;2023-04-24T08:57:36;1.30;;;1.20;;
10458;SDS011;5277;48.722;8.736;2023-04-24T09:00:05;1.90;;;1.13;;
10458;SDS011;5277;48.722;8.736;2023-04-24T09:02:31;2.67;;;1.45;;
10458;SDS011;5277;48.722;8.736;2023-04-24T09:04:59;2.85;;;1.50;;
10458;SDS011;5277;48.722;8.736;2023-04-24T09:07:25;2.95;;;1.85;;
10458;SDS011;5277;48.722;8.736;2023-04-24T09:09:55;3.28;;;1.30;;
10458;SDS011;5277;48.722;8.736;2023-04-24T09:12:21;2.85;;;1.42;;
10458;SDS011;5277;48.722;8.736;2023-04-24T09:14:47;3.40;;;1.10;;
10458;SDS011;5277;48.722;8.736;2023-04-24T09:17:14;1.30;;;1.00;;
10458;SDS011;5277;48.722;8.736;2023-04-24T09:19:40;2.78;;;1.30;;
10458;SDS011;5277;48.722;8.736;2023-04-24T09:22:06;2.30;;;1.38;;
10458;SDS011;5277;48.722;8.736;2023-04-24T09:24:33;1.65;;;1.02;;
10458;SDS011;5277;48.722;8.736;2023-04-24T09:27:00;2.67;;;1.10;;
10458;SDS011;5277;48.722;8.736;2023-04-24T09:29:26;4.00;;;1.00;;
10458;SDS011;5277;48.722;8.736;2023-04-24T09:31:53;2.50;;;0.90;;
10458;SDS011;5277;48.722;8.736;2023-04-24T09:34:24;2.05;;;1.13;;
10458;SDS011;5277;48.722;8.736;2023-04-24T09:36:51;1.50;;;1.00;;
10458;SDS011;5277;48.722;8.736;2023-04-24T09:39:17;4.50;;;1.00;;
10458;SDS011;5277;48.722;8.736;2023-04-24T09:41:47;3.08;;;1.38;;
10458;SDS011;5277;48.722;8.736;2023-04-24T09:44:18;2.70;;;1.00;;
10458;SDS011;5277;48.722;8.736;2023-04-24T09:46:50;2.60;;;1.10;;
10458;SDS011;5277;48.722;8.736;2023-04-24T09:49:21;1.95;;;1.17;;
10458;SDS011;5277;48.722;8.736;2023-04-24T09:51:51;2.42;;;1.10;;
10458;SDS011;5277;48.722;8.736;2023-04-24T09:54:18;1.30;;;1.00;;
10458;SDS011;5277;48.722;8.736;2023-04-24T09:56:46;1.73;;;1.00;;
10458;SDS011;5277;48.722;8.736;2023-04-24T09:59:17;2.63;;;1.13;;
10458;SDS011;5277;48.722;8.736;2023-04-24T10:01:43;5.40;;;1.30;;
10458;SDS011;5277;48.722;8.736;2023-04-24T10:04:23;1.58;;;0.80;;
10458;SDS011;5277;48.722;8.736;2023-04-24T10:06:53;1.80;;;1.10;;
10458;SDS011;5277;48.722;8.736;2023-04-24T10:09:21;1.60;;;1.00;;
10458;SDS011;5277;48.722;8.736;2023-04-24T10:11:52;2.38;;;1.20;;
10458;SDS011;5277;48.722;8.736;2023-04-24T10:14:25;2.80;;;0.98;;
10458;SDS011;5277;48.722;8.736;2023-04-24T10:16:52;2.70;;;1.30;;
10458;SDS011;5277;48.722;8.736;2023-04-24T10:19:19;2.60;;;0.90;;
10458;SDS011;5277;48.722;8.736;2023-04-24T10:21:45;3.28;;;1.17;;
10458;SDS011;5277;48.722;8.736;2023-04-24T10:24:15;2.08;;;0.70;;
10458;SDS011;5277;48.722;8.736;2023-04-24T10:26:43;3.47;;;0.98;;
10458;SDS011;5277;48.722;8.736;2023-04-24T10:29:10;1.30;;;1.00;;
10458;SDS011;5277;48.722;8.736;2023-04-24T10:31:37;2.50;;;0.90;;
10458;SDS011;5277;48.722;8.736;2023-04-24T10:34:07;10.07;;;1.20;;
10458;SDS011;5277;48.722;8.736;2023-04-24T10:36:34;1.55;;;0.93;;
10458;SDS011;5277;48.722;8.736;2023-04-24T10:39:02;2.50;;;1.10;;
10458;SDS011;5277;48.722;8.736;2023-04-24T10:41:32;2.90;;;0.90;;
10458;SDS011;5277;48.722;8.736;2023-04-24T10:46:39;2.80;;;1.25;;
10458;SDS011;5277;48.722;8.736;2023-04-24T10:49:09;3.20;;;1.10;;
10458;SDS011;5277;48.722;8.736;2023-04-24T10:56:52;3.88;;;1.20;;
10458;SDS011;5277;48.722;8.736;2023-04-24T10:59:38;2.05;;;1.40;;
10458;SDS011;5277;48.722;8.736;2023-04-24T11:02:04;1.73;;;1.20;;
10458;SDS011;5277;48.722;8.736;2023-04-24T11:04:33;1.40;;;1.00;;
10458;SDS011;5277;48.722;8.736;2023-04-24T11:07:00;2.40;;;1.20;;
10458;SDS011;5277;48.722;8.736;2023-04-24T11:09:27;1.67;;;1.17;;
10458;SDS011;5277;48.722;8.736;2023-04-24T11:12:05;4.00;;;1.10;;
10458;SDS011;5277;48.722;8.736;2023-04-24T11:15:07;2.17;;;1.10;;
10458;SDS011;5277;48.722;8.736;2023-04-24T11:17:33;1.35;;;1.02;;
10458;SDS011;5277;48.722;8.736;2023-04-24T11:20:06;1.70;;;1.10;;
10458;SDS011;5277;48.722;8.736;2023-04-24T11:22:34;2.08;;;1.05;;
10458;SDS011;5277;48.722;8.736;2023-04-24T11:25:04;1.13;;;0.90;;
10458;SDS011;5277;48.722;8.736;2023-04-24T11:27:33;2.25;;;0.90;;
10458;SDS011;5277;48.722;8.736;2023-04-24T11:30:05;2.15;;;1.10;;
10458;SDS011;5277;48.722;8.736;2023-04-24T11:35:01;1.67;;;0.90;;
10458;SDS011;5277;48.722;8.736;2023-04-24T11:37:37;1.67;;;1.10;;
10458;SDS011;5277;48.722;8.736;2023-04-24T11:40:08;1.42;;;0.95;;
10458;SDS011;5277;48.722;8.736;2023-04-24T11:42:36;1.63;;;0.98;;
10458;SDS011;5277;48.722;8.736;2023-04-24T11:47:35;3.10;;;1.30;;
10458;SDS011;5277;48.722;8.736;2023-04-24T11:50:00;2.10;;;1.40;;
10458;SDS011;5277;48.722;8.736;2023-04-24T11:52:27;2.22;;;1.20;;
10458;SDS011;5277;48.722;8.736;2023-04-24T11:54:53;1.50;;;1.10;;
10458;SDS011;5277;48.722;8.736;2023-04-24T11:57:20;1.60;;;1.20;;
10458;SDS011;5277;48.722;8.736;2023-04-24T11:59:46;1.17;;;1.08;;
10458;SDS011;5277;48.722;8.736;2023-04-24T12:02:22;2.20;;;1.40;;
10458;SDS011;5277;48.722;8.736;2023-04-24T12:04:52;1.73;;;1.27;;
10458;SDS011;5277;48.722;8.736;2023-04-24T12:07:18;3.20;;;1.40;;
10458;SDS011;5277;48.722;8.736;2023-04-24T12:09:45;1.27;;;1.00;;
10458;SDS011;5277;48.722;8.736;2023-04-24T12:12:13;2.90;;;1.25;;
10458;SDS011;5277;48.722;8.736;2023-04-24T12:17:15;2.88;;;1.30;;
10458;SDS011;5277;48.722;8.736;2023-04-24T12:19:48;1.55;;;0.95;;
10458;SDS011;5277;48.722;8.736;2023-04-24T12:22:14;2.20;;;1.00;;
10458;SDS011;5277;48.722;8.736;2023-04-24T12:24:56;2.63;;;1.17;;
10458;SDS011;5277;48.722;8.736;2023-04-24T12:27:22;1.52;;;1.20;;
10458;SDS011;5277;48.722;8.736;2023-04-24T12:29:51;3.15;;;1.20;;
10458;SDS011;5277;48.722;8.736;2023-04-24T12:32:21;3.05;;;0.93;;
10458;SDS011;5277;48.722;8.736;2023-04-24T12:34:47;1.77;;;1.30;;
10458;SDS011;5277;48.722;8.736;2023-04-24T12:37:14;2.05;;;1.20;;
10458;SDS011;5277;48.722;8.736;2023-04-24T12:39:42;4.47;;;1.10;;
10458;SDS011;5277;48.722;8.736;2023-04-24T12:42:32;4.18;;;1.40;;
10458;SDS011;5277;48.722;8.736;2023-04-24T12:45:00;2.40;;;1.50;;
10458;SDS011;5277;48.722;8.736;2023-04-24T12:47:27;2.20;;;1.30;;
10458;SDS011;5277;48.722;8.736;2023-04-24T12:49:53;3.45;;;1.27;;
10458;SDS011;5277;48.722;8.736;2023-04-24T12:52:20;2.78;;;1.30;;
10458;SDS011;5277;48.722;8.736;2023-04-24T12:54:47;2.42;;;1.40;;
10458;SDS011;5277;48.722;8.736;2023-04-24T12:57:12;2.13;;;1.20;;
10458;SDS011;5277;48.722;8.736;2023-04-24T12:59:38;3.65;;;1.48;;
10458;SDS011;5277;48.722;8.736;2023-04-24T13:02:04;3.83;;;1.20;;
10458;SDS011;5277;48.722;8.736;2023-04-24T13:04:31;1.70;;;1.25;;
10458;SDS011;5277;48.722;8.736;2023-04-24T13:07:00;2.50;;;1.45;;
10458;SDS011;5277;48.722;8.736;2023-04-24T13:09:26;1.77;;;1.30;;
10458;SDS011;5277;48.722;8.736;2023-04-24T13:11:51;3.33;;;1.70;;
10458;SDS011;5277;48.722;8.736;2023-04-24T13:14:17;3.28;;;1.20;;
10458;SDS011;5277;48.722;8.736;2023-04-24T13:16:43;2.13;;;1.52;;
10458;SDS011;5277;48.722;8.736;2023-04-24T13:19:08;3.40;;;2.03;;
10458;SDS011;5277;48.722;8.736;2023-04-24T13:21:34;1.83;;;1.30;;
10458;SDS011;5277;48.722;8.736;2023-04-24T13:24:00;1.55;;;1.20;;
10458;SDS011;5277;48.722;8.736;2023-04-24T13:26:26;2.03;;;1.60;;
10458;SDS011;5277;48.722;8.736;2023-04-24T13:28:51;2.03;;;1.20;;
10458;SDS011;5277;48.722;8.736;2023-04-24T13:31:17;1.20;;;1.10;;
10458;SDS011;5277;48.722;8.736;2023-04-24T13:33:43;5.47;;;1.58;;
10458;SDS011;5277;48.722;8.736;2023-04-24T13:36:09;2.55;;;1.40;;
10458;SDS011;5277;48.722;8.736;2023-04-24T13:38:34;2.65;;;1.40;;
10458;SDS011;5277;48.722;8.736;2023-04-24T13:41:00;1.40;;;1.27;;
10458;SDS011;5277;48.722;8.736;2023-04-24T13:43:26;2.67;;;2.20;;
10458;SDS011;5277;48.722;8.736;2023-04-24T13:45:51;1.50;;;1.30;;
10458;SDS011;5277;48.722;8.736;2023-04-24T13:48:17;2.40;;;1.30;;
10458;SDS011;5277;48.722;8.736;2023-04-24T13:50:43;2.60;;;1.63;;
10458;SDS011;5277;48.722;8.736;2023-04-24T13:53:09;1.45;;;1.20;;
10458;SDS011;5277;48.722;8.736;2023-04-24T13:55:35;1.80;;;1.38;;
10458;SDS011;5277;48.722;8.736;2023-04-24T13:58:01;3.90;;;1.35;;
10458;SDS011;5277;48.722;8.736;2023-04-24T14:00:27;1.70;;;1.30;;
10458;SDS011;5277;48.722;8.736;2023-04-24T14:02:53;1.80;;;1.30;;
10458;SDS011;5277;48.722;8.736;2023-04-24T14:05:18;1.80;;;1.50;;
10458;SDS011;5277;48.722;8.736;2023-04-24T14:07:46;1.85;;;1.63;;
10458;SDS011;5277;48.722;8.736;2023-04-24T14:10:11;2.38;;;1.48;;
10458;SDS011;5277;48.722;8.736;2023-04-24T14:12:37;2.28;;;1.50;;
10458;SDS011;5277;48.722;8.736;2023-04-24T14:15:03;2.42;;;1.90;;
10458;SDS011;5277;48.722;8.736;2023-04-24T14:17:29;3.50;;;1.92;;
10458;SDS011;5277;48.722;8.736;2023-04-24T14:19:55;3.45;;;1.70;;
10458;SDS011;5277;48.722;8.736;2023-04-24T14:22:21;1.70;;;1.60;;
10458;SDS011;5277;48.722;8.736;2023-04-24T14:24:47;4.22;;;1.83;;
10458;SDS011;5277;48.722;8.736;2023-04-24T14:27:13;4.60;;;1.80;;
10458;SDS011;5277;48.722;8.736;2023-04-24T14:29:38;2.30;;;1.60;;
10458;SDS011;5277;48.722;8.736;2023-04-24T14:32:04;4.63;;;1.75;;
10458;SDS011;5277;48.722;8.736;2023-04-24T14:34:30;4.00;;;1.70;;
10458;SDS011;5277;48.722;8.736;2023-04-24T14:36:55;3.00;;;1.73;;
10458;SDS011;5277;48.722;8.736;2023-04-24T14:39:21;2.38;;;1.70;;
10458;SDS011;5277;48.722;8.736;2023-04-24T14:41:47;1.90;;;1.35;;
10458;SDS011;5277;48.722;8.736;2023-04-24T14:44:12;5.15;;;1.63;;
10458;SDS011;5277;48.722;8.736;2023-04-24T14:46:38;4.60;;;1.63;;
10458;SDS011;5277;48.722;8.736;2023-04-24T14:49:03;2.97;;;1.33;;
10458;SDS011;5277;48.722;8.736;2023-04-24T14:51:29;1.80;;;1.38;;
10458;SDS011;5277;48.722;8.736;2023-04-24T14:53:56;2.33;;;1.65;;
10458;SDS011;5277;48.722;8.736;2023-04-24T14:56:23;2.85;;;1.65;;
10458;SDS011;5277;48.722;8.736;2023-04-24T14:58:48;2.13;;;1.30;;
10458;SDS011;5277;48.722;8.736;2023-04-24T15:01:14;1.95;;;1.55;;
10458;SDS011;5277;48.722;8.736;2023-04-24T15:03:40;1.73;;;1.30;;
10458;SDS011;5277;48.722;8.736;2023-04-24T15:06:06;5.47;;;1.40;;
10458;SDS011;5277;48.722;8.736;2023-04-24T15:08:31;3.05;;;1.58;;
10458;SDS011;5277;48.722;8.736;2023-04-24T15:10:57;1.77;;;1.40;;
10458;SDS011;5277;48.722;8.736;2023-04-24T15:13:23;3.95;;;1.60;;
10458;SDS011;5277;48.722;8.736;2023-04-24T15:15:48;4.97;;;1.40;;
10458;SDS011;5277;48.722;8.736;2023-04-24T15:18:14;2.47;;;1.33;;
10458;SDS011;5277;48.722;8.736;2023-04-24T15:20:40;2.35;;;1.50;;
10458;SDS011;5277;48.722;8.736;2023-04-24T15:23:07;1.95;;;1.30;;
10458;SDS011;5277;48.722;8.736;2023-04-24T15:25:33;3.53;;;1.23;;